Vaduz, Switzerland

4:31 PM CET on January 16, 2017 (GMT +0100)
Solarisweg | | Change Station

Elev 1502 ft 47.13 °N, 9.52 °E | Updated 4 minutes ago

Overcast
Overcast
28.9 °F
Feels Like 24 °F
N
4.3
Wind Variable Wind from NNW
Gusts 6.8 mph

Today
High -- | Low -- °F
--% Chance of Precip.
Yesterday
High -- | Low -- °F
Precip. -- in
Pressure 30.15 in
Visibility 6.2 miles
Clouds Scattered Clouds 3000 ft
Mostly Cloudy 5000 ft
Windchill 24 °F
Dew Point 20 °F
Humidity 69%
Rainfall 0.00 in
Snow Depth Not available.
8:03 AM 5:00 PM
Waning Gibbous, 80% visible
METAR LSZR 161520Z 03006KT 9999 SCT030 BKN050 M02/M07 Q1021 NOSIG RMK M
Pressure 30.15 in
Visibility 6.2 miles
Clouds Scattered Clouds 3000 ft
Mostly Cloudy 5000 ft
Windchill 24 °F
Dew Point 20 °F
Humidity 69%
Rainfall 0.00 in
Snow Depth Not available.
8:03 AM 5:00 PM
Waning Gibbous, 80% visible
METAR LSZR 161520Z 03006KT 9999 SCT030 BKN050 M02/M07 Q1021 NOSIG RMK M

Get Your Daily Forecast Email!

Thanks for signing up!

Be on the lookout for a verification email in your inbox.

You'll start receiving the daily forecast at 8 AM.

×

10-Day Weather Forecast

×

Almanac

Astronomy

Jan. 16, 2017 Rise Set
Actual Time
Civil Twilight
Nautical Twilight
Astronomical Twilight
Moon
Length of Visible Light
Length of Day
Tomorrow will be .
, % of the Moon is Illuminated

Today's Extremes

Country Highs Country Lows

Community

WunderPhotos

Upload Photos

1,962,540 photos uploaded!

WunderBlog® & News

Nearby

Air Quality

  Air Quality AQ Index Pollutant
Not available.

Snow Depth

Station Depth Elevation

Earthquake Activity

City Distance Mag. Time & Date
Minimum magnitude displayed is 2.5.

Coastal Water Temperatures

Place Temperature

Stations

Nearby Weather Stations

Station Location Temp. Windchill Dew Point Humidity Wind Precip. Elev Updated Type